Time;durP1;ratioP1;P1;durP2;ratioP2;P2;SDS_P1;SDS_P2;PMS_P1;PMS_P2;Temp;Humidity;BMP_temperature;BMP_pressure;BME280_temperature;BME280_humidity;BME280_pressure;Samples;Min_cycle;Max_cycle;Signal;HPM_P1;HPM_P2
2022/12/15 00:39:04;;;;;;;59.70;28.47;;;;;;;-2.35;79.53;97716.19;1714474;82;21033;-40
2022/12/15 00:41:30;;;;;;;52.23;27.93;;;;;;;-2.27;79.37;97719.83;1714482;83;21006;-41
2022/12/15 00:43:56;;;;;;;56.33;26.75;;;;;;;-2.29;79.56;97720.73;1714596;82;21009;-39
2022/12/15 00:50:50;;;;;;;61.33;29.48;;;;;;;-2.25;79.62;97719.33;1714202;82;21554;-40
2022/12/15 01:21:40;;;;;;;53.60;26.37;;;;;;;-2.12;79.42;97719.81;1714481;82;21028;-40
2022/12/15 01:24:06;;;;;;;49.77;26.30;;;;;;;-2.09;79.16;97720.16;1714468;83;20998;-38
2022/12/15 01:26:32;;;;;;;50.75;26.93;;;;;;;-2.10;79.23;97715.91;1714504;82;20997;-38
2022/12/15 01:28:58;;;;;;;51.25;25.65;;;;;;;-2.11;79.28;97721.52;1714438;82;21491;-41
2022/12/15 01:31:24;;;;;;;49.80;26.15;;;;;;;-2.11;79.37;97729.24;1714498;83;21042;-37
2022/12/15 01:33:54;;;;;;;51.92;25.57;;;;;;;-2.09;79.15;97726.17;1714538;82;21464;-40
2022/12/15 01:36:20;;;;;;;46.05;25.25;;;;;;;-2.14;79.29;97730.16;1714552;83;21014;-38
2022/12/15 01:38:45;;;;;;;45.65;25.43;;;;;;;-2.11;79.50;97730.53;1714473;83;21048;-38
2022/12/15 01:41:11;;;;;;;55.10;26.25;;;;;;;-2.12;79.45;97734.81;1714501;84;20994;-42
2022/12/15 01:43:39;;;;;;;49.38;26.50;;;;;;;-2.13;78.98;97733.57;1714381;82;20998;-40
2022/12/15 01:46:11;;;;;;;52.65;26.97;;;;;;;-2.12;79.58;97732.70;1714426;84;21448;-41
2022/12/15 01:48:48;;;;;;;52.55;27.70;;;;;;;-2.20;79.13;97727.77;1706278;83;21034;-39
2022/12/15 01:51:39;;;;;;;50.88;27.48;;;;;;;-2.17;79.93;97734.55;1698825;84;21042;-37
2022/12/15 01:54:19;;;;;;;53.35;27.82;;;;;;;-2.14;79.92;97735.77;1679288;84;21519;-39
2022/12/15 01:56:49;;;;;;;53.17;26.95;;;;;;;-2.09;79.53;97740.77;1699182;83;21006;-38
2022/12/15 01:59:22;;;;;;;55.85;29.32;;;;;;;-2.08;79.74;97744.58;1698970;83;20999;-37
2022/12/15 02:01:48;;;;;;;53.70;27.58;;;;;;;-2.02;79.65;97747.00;1699099;83;21003;-36
2022/12/15 02:04:17;;;;;;;58.35;27.67;;;;;;;-2.07;79.39;97745.00;1699290;83;20995;-40
2022/12/15 02:06:43;;;;;;;55.92;26.87;;;;;;;-2.14;79.62;97749.92;1699272;83;21031;-38
2022/12/15 02:09:09;;;;;;;55.73;27.85;;;;;;;-2.19;79.57;97752.62;1699227;84;21088;-37
2022/12/15 02:11:59;;;;;;;58.65;28.80;;;;;;;-2.23;79.81;97754.06;1699260;83;21054;-39
2022/12/15 02:14:37;;;;;;;57.67;28.73;;;;;;;-2.21;79.96;97757.43;1699262;83;21007;-39
2022/12/15 02:17:23;;;;;;;51.13;25.85;;;;;;;-2.23;79.79;97760.49;1699526;83;21003;-36
2022/12/15 02:20:31;;;;;;;50.60;27.73;;;;;;;-2.26;79.87;97765.27;1699360;83;21540;-41
2022/12/15 02:23:37;;;;;;;56.90;27.77;;;;;;;-2.26;80.04;97767.01;1699246;83;20995;-39
2022/12/15 02:26:45;;;;;;;53.63;28.27;;;;;;;-2.27;80.23;97764.89;1699350;83;21037;-43
2022/12/15 02:29:53;;;;;;;62.27;29.82;;;;;;;-2.26;80.25;97769.58;1699250;84;21002;-39
2022/12/15 02:32:30;;;;;;;56.15;29.65;;;;;;;-2.27;80.20;97771.74;1697717;84;20999;-38
2022/12/15 02:35:13;;;;;;;57.53;29.63;;;;;;;-2.28;80.50;97777.34;1699332;83;20983;-43
2022/12/15 02:37:39;;;;;;;60.30;30.12;;;;;;;-2.28;80.49;97777.80;1698697;84;20998;-39
2022/12/15 02:42:43;;;;;;;54.55;28.90;;;;;;;-2.23;80.41;97781.09;1703280;83;21645;-38
2022/12/15 02:45:13;;;;;;;68.60;31.00;;;;;;;-2.24;80.33;97782.80;1702560;83;20994;-38
2022/12/15 02:48:05;;;;;;;59.00;30.00;;;;;;;-2.22;80.08;97782.77;1670455;84;21054;-40
2022/12/15 02:51:10;;;;;;;55.25;28.98;;;;;;;-2.25;80.34;97791.89;1702178;84;21014;-38
2022/12/15 02:53:57;;;;;;;56.70;29.42;;;;;;;-2.25;80.30;97789.31;1702250;84;21544;-39
2022/12/15 02:56:34;;;;;;;56.70;29.75;;;;;;;-2.17;80.13;97800.22;1702231;83;21037;-38
2022/12/15 02:59:06;;;;;;;57.60;30.30;;;;;;;-2.16;80.06;97805.34;1702382;84;21495;-40
2022/12/15 03:01:57;;;;;;;63.40;31.93;;;;;;;-2.17;79.91;97804.92;1702246;84;21010;-41
2022/12/15 03:04:25;;;;;;;64.17;31.85;;;;;;;-2.18;80.08;97799.84;1702261;84;21022;-40
2022/12/15 03:07:00;;;;;;;70.67;34.10;;;;;;;-2.17;79.89;97803.63;1702423;84;21543;-37
2022/12/15 03:09:26;;;;;;;71.85;33.75;;;;;;;-2.21;79.99;97800.75;1670463;84;21065;-37
2022/12/15 03:11:52;;;;;;;64.77;32.50;;;;;;;-2.25;79.93;97807.34;1702309;83;21507;-41
2022/12/15 03:14:18;;;;;;;68.42;34.60;;;;;;;-2.33;80.32;97807.52;1702481;84;21495;-36
2022/12/15 03:16:43;;;;;;;70.67;34.18;;;;;;;-2.31;80.44;97818.63;1702307;83;21078;-39
2022/12/15 03:19:09;;;;;;;69.40;34.15;;;;;;;-2.33;80.30;97817.82;1702445;84;21499;-41
2022/12/15 03:21:35;;;;;;;70.42;35.80;;;;;;;-2.29;80.03;97822.45;1702160;84;21018;-39
2022/12/15 03:24:01;;;;;;;67.82;35.95;;;;;;;-2.29;79.97;97830.17;1702434;84;21006;-41
2022/12/15 03:26:26;;;;;;;78.15;37.30;;;;;;;-2.34;79.91;97829.86;1702247;84;21022;-39
2022/12/15 03:28:52;;;;;;;72.47;35.73;;;;;;;-2.28;79.70;97824.15;1702446;84;20998;-42
2022/12/15 03:31:18;;;;;;;75.72;37.45;;;;;;;-2.37;79.53;97832.50;1702271;84;21419;-39
2022/12/15 03:33:43;;;;;;;71.17;35.43;;;;;;;-2.33;79.55;97842.28;1702240;84;21010;-39
2022/12/15 03:36:09;;;;;;;76.87;37.33;;;;;;;-2.34;79.60;97838.88;1702491;84;21511;-37
2022/12/15 03:38:35;;;;;;;88.22;38.58;;;;;;;-2.29;79.52;97832.33;1702198;84;21511;-37
2022/12/15 03:41:01;;;;;;;75.72;37.83;;;;;;;-2.30;79.49;97837.51;1702517;84;21042;-39
2022/12/15 03:43:26;;;;;;;74.95;37.58;;;;;;;-2.31;79.48;97828.92;1697129;84;21074;-39
2022/12/15 03:45:52;;;;;;;78.78;39.40;;;;;;;-2.36;79.59;97839.36;1696942;84;21014;-38
2022/12/15 03:48:18;;;;;;;81.45;40.48;;;;;;;-2.34;79.55;97845.30;1696931;84;21010;-41
2022/12/15 03:50:44;;;;;;;84.35;39.38;;;;;;;-2.30;79.67;97845.23;1696878;84;21054;-38
2022/12/15 03:53:09;;;;;;;84.47;41.68;;;;;;;-2.36;79.65;97852.23;1696918;84;20979;-38
2022/12/15 03:55:35;;;;;;;89.47;42.45;;;;;;;-2.42;79.65;97842.11;1696992;84;21039;-39
2022/12/15 03:58:01;;;;;;;90.65;42.62;;;;;;;-2.49;80.30;97843.15;1697030;84;21500;-38
2022/12/15 04:00:27;;;;;;;87.72;41.53;;;;;;;-2.51;80.18;97848.33;1697047;84;21823;-42
2022/12/15 04:02:53;;;;;;;84.25;41.13;;;;;;;-2.44;79.83;97850.28;1696913;84;21023;-36
2022/12/15 04:05:32;;;;;;;80.50;41.02;;;;;;;-2.41;79.80;97850.21;1696902;84;21006;-36
2022/12/15 04:08:00;;;;;;;81.82;40.98;;;;;;;-2.47;79.91;97854.25;1696946;84;21014;-40
2022/12/15 04:10:28;;;;;;;93.00;43.90;;;;;;;-2.51;79.92;97848.75;1696908;84;21023;-36
2022/12/15 04:13:07;;;;;;;81.47;41.10;;;;;;;-2.49;79.48;97861.17;1696912;83;21015;-40
2022/12/15 04:15:35;;;;;;;90.55;43.73;;;;;;;-2.49;80.21;97862.88;1696925;84;21057;-39
2022/12/15 04:18:03;;;;;;;89.65;41.60;;;;;;;-2.55;80.11;97862.59;1696963;84;21053;-37
2022/12/15 04:20:29;;;;;;;86.55;43.10;;;;;;;-2.53;79.69;97867.25;1697015;84;21062;-41
2022/12/15 04:22:55;;;;;;;91.55;42.65;;;;;;;-2.49;79.56;97867.61;1696943;84;21014;-40
2022/12/15 05:31:53;;;;;;;105.70;49.20;;;;;;;-2.77;81.05;97977.62;1696876;84;21508;-36
2022/12/15 05:34:22;;;;;;;109.32;49.03;;;;;;;-2.76;81.07;97975.92;1696898;84;21484;-40
2022/12/15 05:36:49;;;;;;;99.32;49.18;;;;;;;-2.81;81.25;97975.17;1696564;84;21535;-40
2022/12/15 05:39:15;;;;;;;104.17;48.78;;;;;;;-2.72;80.96;97983.52;1696932;84;21019;-37
2022/12/15 05:41:41;;;;;;;112.70;50.60;;;;;;;-2.71;80.81;97989.08;1696708;83;21146;-39
2022/12/15 05:44:07;;;;;;;115.52;52.88;;;;;;;-2.79;81.09;97990.13;1702190;84;21062;-37
2022/12/15 05:46:33;;;;;;;109.32;51.35;;;;;;;-2.83;81.37;97994.50;1702231;84;21047;-37
2022/12/15 05:49:04;;;;;;;121.80;52.67;;;;;;;-2.83;81.37;97994.50;1702106;84;21492;-41
2022/12/15 05:51:30;;;;;;;117.28;54.18;;;;;;;-2.86;81.80;97997.58;1702114;84;21006;-35
2022/12/15 05:53:55;;;;;;;104.55;50.50;;;;;;;-2.82;82.11;98012.92;1702085;84;21531;-38
2022/12/15 05:56:21;;;;;;;121.82;53.98;;;;;;;-2.83;81.83;98012.95;1702200;83;21503;-36
2022/12/15 05:58:47;;;;;;;116.57;50.85;;;;;;;-2.82;81.83;98018.07;1702207;84;21022;-38
2022/12/15 06:01:15;;;;;;;117.35;53.30;;;;;;;-2.85;81.80;98021.16;1702099;84;21050;-37
2022/12/15 06:03:42;;;;;;;119.97;54.95;;;;;;;-2.90;82.14;98019.50;1702124;84;21503;-36
2022/12/15 06:06:10;;;;;;;112.77;52.70;;;;;;;-2.93;82.83;98018.72;1702406;84;21006;-40
2022/12/15 06:08:38;;;;;;;109.60;51.30;;;;;;;-2.86;82.40;98023.30;1702137;84;21045;-36
2022/12/15 06:11:06;;;;;;;120.90;53.38;;;;;;;-2.84;82.19;98021.09;1702228;84;21014;-35
2022/12/15 06:13:35;;;;;;;120.35;56.60;;;;;;;-2.83;82.13;98022.80;1702250;84;21491;-37
2022/12/15 06:16:08;;;;;;;125.82;54.03;;;;;;;-2.86;82.51;98036.16;1702134;84;21563;-38
2022/12/15 06:18:38;;;;;;;124.10;55.10;;;;;;;-2.91;82.96;98040.11;1700836;84;21377;-36
2022/12/15 06:21:08;;;;;;;116.22;54.48;;;;;;;-2.86;82.54;98042.15;1702117;84;21006;-40
2022/12/15 06:23:35;;;;;;;116.73;53.50;;;;;;;-2.88;82.39;98051.63;1702110;84;21054;-37
2022/12/15 06:26:24;;;;;;;125.60;56.63;;;;;;;-2.88;82.39;98051.63;1702122;84;21066;-38
2022/12/15 06:28:51;;;;;;;118.85;53.83;;;;;;;-2.88;82.66;98055.94;1702133;84;21022;-35
2022/12/15 06:31:21;;;;;;;135.75;58.28;;;;;;;-2.87;82.41;98064.91;1702141;84;21022;-40
2022/12/15 06:33:46;;;;;;;129.95;58.13;;;;;;;-2.87;82.72;98076.48;1701936;84;21050;-37
2022/12/15 06:36:15;;;;;;;133.25;57.43;;;;;;;-2.83;82.77;98084.55;1702150;84;21547;-37
2022/12/15 06:38:44;;;;;;;131.90;57.83;;;;;;;-2.88;82.76;98091.50;1702146;84;21065;-39
2022/12/15 06:41:14;;;;;;;130.75;57.60;;;;;;;-2.91;82.82;98097.57;1702088;84;21511;-39
2022/12/15 06:43:41;;;;;;;132.18;61.37;;;;;;;-2.99;83.35;98103.74;1694533;84;21532;-43
2022/12/15 06:46:07;;;;;;;121.20;53.13;;;;;;;-2.91;83.40;98110.44;1692069;85;21062;-38
2022/12/15 06:48:34;;;;;;;134.18;57.43;;;;;;;-2.91;83.67;98114.71;1692074;84;21540;-40
2022/12/15 06:51:05;;;;;;;132.12;60.15;;;;;;;-2.84;82.54;98121.42;1691981;85;21023;-37
2022/12/15 06:53:35;;;;;;;125.25;57.43;;;;;;;-2.84;83.07;98119.30;1691896;85;21524;-36
2022/12/15 06:56:05;;;;;;;123.28;56.42;;;;;;;-2.83;82.96;98129.56;1691804;85;21046;-38
2022/12/15 06:58:31;;;;;;;123.65;55.60;;;;;;;-2.79;83.02;98127.33;1691807;85;21066;-41
2022/12/15 07:00:57;;;;;;;120.15;55.23;;;;;;;-2.77;82.86;98137.16;1692046;85;21011;-40
2022/12/15 07:03:23;;;;;;;118.77;53.28;;;;;;;-2.73;82.48;98141.80;1691600;85;20995;-39
2022/12/15 07:06:02;;;;;;;127.72;57.70;;;;;;;-2.84;82.69;98140.72;1691834;85;21019;-40
2022/12/15 07:08:28;;;;;;;125.18;55.38;;;;;;;-2.79;82.84;98137.62;1691665;85;21472;-40
2022/12/15 07:10:54;;;;;;;126.15;54.63;;;;;;;-2.68;82.26;98143.00;1679535;85;21474;-41
2022/12/15 07:13:20;;;;;;;118.75;52.58;;;;;;;-2.66;82.53;98150.25;1679520;85;21526;-39
2022/12/15 07:15:48;;;;;;;118.87;53.87;;;;;;;-2.66;82.53;98150.25;1679584;85;21071;-37
2022/12/15 07:18:14;;;;;;;148.95;60.80;;;;;;;-2.62;82.15;98151.88;1679504;85;21003;-36
2022/12/15 07:20:39;;;;;;;136.37;58.68;;;;;;;-2.68;82.21;98156.71;1679520;85;21055;-36
2022/12/15 07:23:08;;;;;;;128.23;56.20;;;;;;;-2.67;82.29;98163.57;1679543;85;21027;-37
2022/12/15 07:25:35;;;;;;;;;;;;;;;-2.61;82.32;98162.14;1681790;85;21031;-40
2022/12/15 07:28:00;;;;;;;118.70;53.52;;;;;;;-2.61;82.46;98167.29;1679534;85;20119;-42
2022/12/15 07:30:26;;;;;;;119.95;56.45;;;;;;;-2.70;82.74;98170.05;1679606;85;21020;-40
2022/12/15 07:32:52;;;;;;;119.95;55.15;;;;;;;-2.63;82.49;98173.36;1679655;85;21019;-38
2022/12/15 07:35:18;;;;;;;128.02;59.77;;;;;;;-2.59;82.22;98172.41;1679679;85;21039;-36
2022/12/15 07:37:44;;;;;;;172.35;76.65;;;;;;;-2.66;82.74;98172.13;1679755;85;21059;-38
2022/12/15 07:40:10;;;;;;;205.65;90.47;;;;;;;-2.57;82.53;98177.09;1679614;85;21015;-36
2022/12/15 07:42:36;;;;;;;136.47;58.73;;;;;;;-2.53;82.29;98186.44;1681700;85;21524;-41
2022/12/15 07:45:04;;;;;;;126.85;58.15;;;;;;;-2.58;81.80;98186.99;1709285;84;20979;-38
2022/12/15 07:47:31;;;;;;;131.97;59.38;;;;;;;-2.58;81.80;98186.99;1709270;83;21039;-37
2022/12/15 07:49:57;;;;;;;156.22;68.90;;;;;;;-2.54;82.11;98202.33;1709373;83;20976;-36
2022/12/15 07:52:23;;;;;;;130.97;62.10;;;;;;;-2.52;81.96;98211.31;1709207;83;21015;-37
2022/12/15 07:54:49;;;;;;;125.10;59.05;;;;;;;-2.54;81.95;98216.93;1709320;84;20987;-38
2022/12/15 07:57:15;;;;;;;137.92;62.62;;;;;;;-2.55;82.29;98224.23;1709266;84;21047;-38
2022/12/15 07:59:41;;;;;;;123.00;58.35;;;;;;;-2.53;82.42;98228.91;1709305;84;21480;-36
2022/12/15 08:02:12;;;;;;;131.17;61.80;;;;;;;-2.53;82.43;98232.77;1709539;83;21006;-36
2022/12/15 08:04:39;;;;;;;125.75;57.27;;;;;;;-2.64;82.73;98234.26;1709262;84;21047;-38
2022/12/15 08:07:05;;;;;;;121.00;56.23;;;;;;;-2.54;82.37;98234.95;1709355;84;20980;-35
2022/12/15 08:09:31;;;;;;;127.45;57.13;;;;;;;-2.62;82.42;98245.81;1709302;83;21599;-38
2022/12/15 08:11:57;;;;;;;131.63;60.90;;;;;;;-2.59;82.44;98244.03;1709261;83;21011;-40
2022/12/15 08:14:23;;;;;;;145.68;64.72;;;;;;;-2.57;82.37;98238.86;1709236;84;20992;-40
2022/12/15 08:16:49;;;;;;;136.57;61.33;;;;;;;-2.51;82.34;98243.88;1709263;83;21495;-38
2022/12/15 08:19:16;;;;;;;135.75;60.95;;;;;;;-2.46;82.80;98250.24;1709296;84;21491;-41
2022/12/15 08:21:44;;;;;;;122.90;56.55;;;;;;;-2.43;82.25;98256.18;1709323;83;21031;-41
2022/12/15 08:24:11;;;;;;;129.40;59.85;;;;;;;-2.44;82.29;98264.77;1709291;83;21008;-38
2022/12/15 08:26:37;;;;;;;117.10;57.38;;;;;;;-2.44;82.29;98272.48;1709396;84;20985;-39
2022/12/15 08:29:05;;;;;;;112.62;55.33;;;;;;;-2.42;82.18;98278.91;1709440;84;20980;-37
2022/12/15 08:31:32;;;;;;;122.00;57.30;;;;;;;-2.46;82.62;98281.13;1708704;83;21578;-39
2022/12/15 08:34:01;;;;;;;127.20;57.73;;;;;;;-2.49;83.07;98282.05;1707420;84;21074;-39
2022/12/15 08:36:28;;;;;;;117.87;55.95;;;;;;;-2.46;82.84;98278.56;1708940;84;21011;-41
2022/12/15 08:38:59;;;;;;;109.57;52.03;;;;;;;-2.36;82.56;98284.80;1709365;83;21003;-41
2022/12/15 08:41:29;;;;;;;113.37;53.48;;;;;;;-2.45;82.71;98286.26;1709201;84;21492;-37
2022/12/15 08:43:56;;;;;;;113.72;53.33;;;;;;;-2.42;82.64;98296.51;1713950;82;21075;-39
2022/12/15 08:46:28;;;;;;;114.35;55.00;;;;;;;-2.60;82.53;98300.69;1717256;83;20995;-41
2022/12/15 08:48:55;;;;;;;120.87;56.15;;;;;;;-2.64;82.52;98308.06;1712786;83;21002;-39
2022/12/15 08:51:22;;;;;;;118.28;55.92;;;;;;;-2.56;82.66;98303.19;1706207;83;21002;-40
2022/12/15 08:53:48;;;;;;;119.00;57.03;;;;;;;-2.49;82.54;98296.63;1704425;84;20994;-38
2022/12/15 08:56:18;;;;;;;130.22;59.13;;;;;;;-2.44;82.70;98294.82;1703770;82;21021;-36
2022/12/15 08:58:47;;;;;;;118.90;53.60;;;;;;;-2.44;82.79;98299.97;1704464;84;21014;-39
2022/12/15 09:01:17;;;;;;;117.42;55.67;;;;;;;-2.40;82.34;98303.77;1703958;84;21089;-38
2022/12/15 09:03:44;;;;;;;128.45;57.60;;;;;;;-2.47;82.27;98307.33;1704512;84;21014;-39
2022/12/15 09:06:17;;;;;;;133.75;59.85;;;;;;;-2.40;82.15;98308.04;1703653;84;21049;-39
2022/12/15 09:08:43;;;;;;;125.42;58.92;;;;;;;-2.51;82.50;98314.67;1704136;84;21034;-41
2022/12/15 09:11:09;;;;;;;123.33;56.98;;;;;;;-2.41;82.37;98317.50;1703367;84;21049;-39
2022/12/15 09:13:36;;;;;;;114.75;56.45;;;;;;;-2.40;82.25;98324.36;1704227;84;21030;-40
2022/12/15 09:16:07;;;;;;;123.90;60.78;;;;;;;-2.52;82.04;98321.55;1703734;84;21029;-38
2022/12/15 09:18:34;;;;;;;128.15;60.85;;;;;;;-2.37;82.16;98322.99;1704149;84;21022;-38
2022/12/15 09:21:03;;;;;;;119.30;54.67;;;;;;;-2.32;82.05;98324.20;1703392;84;20998;-40
2022/12/15 09:23:29;;;;;;;121.40;60.08;;;;;;;-2.20;81.88;98323.11;1703123;84;21057;-38
2022/12/15 09:26:01;;;;;;;136.45;63.80;;;;;;;-2.24;81.90;98327.47;1703558;84;21054;-37
2022/12/15 09:28:28;;;;;;;123.58;58.17;;;;;;;-2.23;82.11;98325.77;1702573;84;21034;-36
2022/12/15 09:31:08;;;;;;;122.65;58.25;;;;;;;-2.22;82.04;98329.60;1704334;84;21618;-37
2022/12/15 09:33:35;;;;;;;115.32;55.38;;;;;;;-2.09;82.10;98335.36;1703100;82;21026;-37
2022/12/15 09:36:03;;;;;;;123.30;59.05;;;;;;;-1.99;81.41;98336.02;1703744;84;21089;-41
2022/12/15 09:38:30;;;;;;;120.80;57.45;;;;;;;-1.99;81.17;98335.57;1703131;84;21031;-36
2022/12/15 09:40:56;;;;;;;118.17;55.52;;;;;;;-1.95;81.00;98337.23;1703677;84;21578;-41
2022/12/15 09:43:25;;;;;;;495.80;259.92;;;;;;;-2.03;80.62;98333.10;1701075;84;21047;-38
2022/12/15 09:46:06;;;;;;;605.58;318.00;;;;;;;-1.95;80.85;98334.66;1696494;84;21014;-40
2022/12/15 09:48:37;;;;;;;407.75;175.65;;;;;;;-1.95;81.00;98328.21;1695402;84;21590;-37
2022/12/15 09:51:07;;;;;;;202.25;81.87;;;;;;;-1.95;80.90;98338.52;1696121;84;21061;-38
2022/12/15 09:53:34;;;;;;;138.05;63.40;;;;;;;-1.99;80.82;98339.44;1695497;84;22290;-38
2022/12/15 09:56:11;;;;;;;118.15;57.10;;;;;;;-1.95;80.62;98348.83;1674985;84;21622;-37
2022/12/15 09:58:58;;;;;;;121.55;55.25;;;;;;;-1.90;80.70;98344.85;1695976;84;20986;-38
2022/12/15 10:01:37;;;;;;;122.13;57.08;;;;;;;-1.89;80.71;98345.69;1696243;84;20967;-39
2022/12/15 10:04:15;;;;;;;117.40;55.85;;;;;;;-1.92;80.68;98354.34;1696632;84;21007;-37
2022/12/15 10:06:58;;;;;;;125.70;57.60;;;;;;;-1.83;80.78;98362.34;1695999;84;21621;-38
2022/12/15 10:09:27;;;;;;;119.90;55.50;;;;;;;-1.87;80.51;98360.67;1695488;84;21006;-37
2022/12/15 10:11:59;;;;;;;122.65;58.28;;;;;;;-1.87;80.70;98360.67;1696492;82;20959;-36
2022/12/15 10:14:40;;;;;;;113.42;55.58;;;;;;;-1.82;81.12;98362.73;1696119;84;21106;-40
2022/12/15 10:17:31;;;;;;;119.35;56.35;;;;;;;-1.82;80.82;98362.73;1696425;84;21034;-40
2022/12/15 10:20:19;;;;;;;124.12;56.90;;;;;;;-1.76;80.62;98363.91;1695841;84;21462;-39
2022/12/15 10:22:45;;;;;;;112.80;54.27;;;;;;;-1.74;80.44;98372.45;1695950;84;20995;-40
2022/12/15 10:25:28;;;;;;;103.15;50.15;;;;;;;-1.72;80.45;98373.27;1696760;83;21034;-37
2022/12/15 10:28:31;;;;;;;110.37;50.70;;;;;;;-1.74;80.14;98378.90;1696814;84;21003;-40
2022/12/15 10:31:02;;;;;;;108.45;51.77;;;;;;;-1.76;80.03;98381.95;1682160;83;21039;-40
2022/12/15 10:33:44;;;;;;;114.77;55.75;;;;;;;-1.82;80.13;98378.19;1695640;83;20976;-41
2022/12/15 10:36:13;;;;;;;115.35;54.40;;;;;;;-1.73;80.25;98381.87;1694304;83;21465;-37
2022/12/15 10:38:44;;;;;;;115.50;53.98;;;;;;;-1.70;80.04;98380.53;1696366;84;21554;-38
2022/12/15 10:41:26;;;;;;;112.65;53.52;;;;;;;-1.69;80.26;98380.08;1708201;83;21085;-40
2022/12/15 10:43:53;;;;;;;139.07;64.90;;;;;;;-1.79;80.13;98381.55;1707666;83;21039;-40
2022/12/15 10:46:27;;;;;;;127.40;58.38;;;;;;;-1.65;80.27;98386.44;1708500;84;21134;-38
2022/12/15 10:48:59;;;;;;;116.25;56.60;;;;;;;-1.68;80.00;98382.63;1708200;84;21062;-39
2022/12/15 10:51:56;;;;;;;118.40;55.70;;;;;;;-1.64;80.10;98386.83;1706644;84;21043;-36
2022/12/15 10:54:34;;;;;;;124.92;57.45;;;;;;;-1.59;80.11;98380.31;1700005;83;21024;-39
2022/12/15 10:57:17;;;;;;;134.37;63.73;;;;;;;-1.61;79.92;98382.91;1703896;82;21549;-37
2022/12/15 10:59:43;;;;;;;124.58;56.98;;;;;;;-1.56;80.04;98381.55;1685394;83;21026;-39
2022/12/15 11:02:35;;;;;;;121.92;58.02;;;;;;;-1.57;79.80;98382.41;1712512;82;21486;-40
2022/12/15 11:05:15;;;;;;;121.50;58.70;;;;;;;-1.52;79.76;98384.45;1697801;84;20996;-39
2022/12/15 11:07:55;;;;;;;139.60;62.83;;;;;;;-1.57;79.53;98384.98;1705068;84;21557;-37
2022/12/15 11:12:50;;;;;;;118.10;57.30;;;;;;;-1.44;79.74;98392.02;1702750;83;21020;-38
2022/12/15 11:13:21;;;;;;;116.17;54.15;;;;;;;-1.38;79.74;98398.36;1669432;84;21001;-40
2022/12/15 11:15:52;;;;;;;127.30;57.08;;;;;;;-1.50;79.41;98402.48;1690964;83;20993;-39
2022/12/15 11:18:45;;;;;;;120.95;54.95;;;;;;;-1.42;79.52;98408.31;1694423;84;20976;-38
2022/12/15 11:21:25;;;;;;;109.22;51.33;;;;;;;-1.50;79.29;98403.77;1694042;83;21385;-36
2022/12/15 11:24:11;;;;;;;116.82;56.53;;;;;;;-1.41;79.34;98411.31;1706416;83;20949;-39
2022/12/15 11:27:01;;;;;;;109.57;49.30;;;;;;;-1.42;78.98;98422.49;1710812;83;21003;-44
2022/12/15 11:29:47;;;;;;;103.40;48.83;;;;;;;-1.43;79.24;98422.10;1675867;83;21034;-40
2022/12/15 11:32:14;;;;;;;109.50;50.52;;;;;;;-1.40;79.06;98431.91;1705592;83;20984;-40
2022/12/15 11:34:46;;;;;;;110.28;52.20;;;;;;;-1.41;79.19;98434.52;1705790;83;20995;-41
2022/12/15 11:37:34;;;;;;;102.15;50.28;;;;;;;-1.47;79.04;98433.37;1687574;83;20940;-40
2022/12/15 11:40:39;;;;;;;107.65;51.25;;;;;;;-1.45;78.93;98440.17;1715727;83;21505;-37
2022/12/15 11:43:22;;;;;;;101.40;50.08;;;;;;;-1.41;79.45;98443.09;1698000;84;21060;-40
2022/12/15 11:46:21;;;;;;;112.03;53.98;;;;;;;-1.38;79.19;98441.75;1690025;83;21018;-37
2022/12/15 11:48:58;;;;;;;109.37;50.83;;;;;;;-1.33;79.04;98449.83;1707970;83;21035;-36
2022/12/15 11:51:41;;;;;;;100.45;47.70;;;;;;;-1.38;79.18;98457.67;1698953;83;21025;-39
2022/12/15 11:54:41;;;;;;;98.82;48.78;;;;;;;-1.42;79.10;98465.04;1704231;83;20981;-41
2022/12/15 11:57:15;;;;;;;104.20;50.48;;;;;;;-1.48;79.34;98465.17;1698049;84;20941;-42
2022/12/15 12:00:14;;;;;;;114.35;53.10;;;;;;;-1.41;79.28;98474.49;1714496;83;20973;-40
2022/12/15 12:03:21;;;;;;;109.95;53.28;;;;;;;-1.40;79.57;98473.59;1607847;88;21027;-40
2022/12/15 12:06:10;;;;;;;107.70;53.95;;;;;;;-1.35;79.24;98470.48;1688724;83;20965;-42
2022/12/15 12:09:05;;;;;;;107.25;52.13;;;;;;;-1.37;79.05;98464.06;1675091;84;20957;-41
2022/12/15 12:11:54;;;;;;;115.95;57.80;;;;;;;-1.28;78.72;98474.64;1689274;83;21460;-37
2022/12/15 12:14:45;;;;;;;136.65;66.82;;;;;;;-1.22;78.77;98478.41;1696665;83;21021;-41
2022/12/15 12:17:33;;;;;;;123.65;61.40;;;;;;;-1.14;78.67;98477.39;1681767;83;20990;-38
2022/12/15 12:20:04;;;;;;;109.27;54.08;;;;;;;-1.03;77.94;98478.02;1712594;83;20988;-38
2022/12/15 12:23:01;;;;;;;106.05;52.20;;;;;;;-0.98;77.79;98486.06;1713940;83;21824;-40
2022/12/15 12:25:34;;;;;;;102.78;51.23;;;;;;;-1.10;76.96;98482.44;1692975;82;21004;-39
2022/12/15 12:28:29;;;;;;;101.60;52.65;;;;;;;-1.08;76.78;98479.39;1709063;81;21001;-38
2022/12/15 12:30:59;;;;;;;98.70;51.08;;;;;;;-1.04;76.93;98485.33;1691913;83;21021;-43
2022/12/15 12:33:36;;;;;;;107.30;52.33;;;;;;;-1.04;76.56;98490.04;1714478;82;20976;-38
2022/12/15 12:36:13;;;;;;;102.82;50.83;;;;;;;-1.12;76.70;98491.11;1702934;84;21018;-38
2022/12/15 12:38:46;;;;;;;98.90;46.75;;;;;;;-1.11;76.73;98483.76;1719374;81;21044;-40
2022/12/15 12:41:29;;;;;;;100.42;50.70;;;;;;;-1.11;76.57;98494.08;1695254;84;20973;-39
2022/12/15 12:44:00;;;;;;;107.17;50.95;;;;;;;-1.06;76.89;98495.68;1713615;82;21060;-38
2022/12/15 12:46:37;;;;;;;105.60;52.95;;;;;;;-1.12;76.41;98493.69;1699002;83;20993;-40
2022/12/15 12:49:27;;;;;;;105.07;52.50;;;;;;;-1.13;76.34;98499.72;1710471;83;21439;-36
2022/12/15 12:51:57;;;;;;;107.35;53.45;;;;;;;-1.13;76.22;98497.14;1723424;83;20953;-38
2022/12/15 12:54:39;;;;;;;111.40;55.10;;;;;;;-1.21;76.16;98512.78;1700160;83;21044;-37
2022/12/15 12:57:13;;;;;;;107.10;53.98;;;;;;;-1.19;76.07;98518.30;1709577;83;21059;-37
2022/12/15 12:59:50;;;;;;;98.52;49.30;;;;;;;-1.13;76.30;98524.23;1689083;84;20984;-37
2022/12/15 13:02:28;;;;;;;105.92;52.03;;;;;;;-1.13;75.94;98522.48;1705002;84;21001;-38
2022/12/15 13:05:05;;;;;;;100.12;49.38;;;;;;;-1.14;75.72;98532.42;1696578;84;21008;-40
2022/12/15 13:07:36;;;;;;;98.10;48.28;;;;;;;-1.12;75.67;98538.84;1700668;84;21052;-39
2022/12/15 13:10:17;;;;;;;92.53;45.17;;;;;;;-1.17;75.71;98537.63;1703963;84;21001;-39
2022/12/15 13:12:52;;;;;;;91.32;45.80;;;;;;;-1.09;75.90;98536.18;1694489;83;21478;-39
2022/12/15 13:15:36;;;;;;;107.07;49.88;;;;;;;-1.22;76.14;98537.73;1673513;85;21028;-39
2022/12/15 13:18:21;;;;;;;98.15;49.45;;;;;;;-1.29;75.73;98541.73;1702692;84;21012;-37
2022/12/15 13:20:51;;;;;;;104.35;49.48;;;;;;;-1.37;75.92;98544.02;1694385;83;21028;-41
2022/12/15 13:23:22;;;;;;;95.20;48.75;;;;;;;-1.39;76.01;98543.66;1708154;84;20965;-41
2022/12/15 13:26:00;;;;;;;103.90;50.78;;;;;;;-1.33;76.34;98538.36;1700502;84;20957;-40
2022/12/15 13:28:44;;;;;;;;;;;;;;;-1.28;76.38;98540.42;1701668;83;20996;-41
2022/12/15 13:31:21;;;;;;;108.75;53.85;;;;;;;-1.35;76.37;98540.13;1676355;84;20422;-38
2022/12/15 13:34:13;;;;;;;103.22;51.60;;;;;;;-1.28;76.38;98539.13;1703619;84;20996;-40
2022/12/15 13:36:43;;;;;;;102.95;50.28;;;;;;;-1.25;76.54;98539.08;1708231;83;21060;-40
2022/12/15 13:39:20;;;;;;;104.63;51.88;;;;;;;-1.26;76.53;98524.47;1687670;85;21470;-39
2022/12/15 13:41:52;;;;;;;104.32;51.58;;;;;;;-1.22;76.32;98526.55;1692513;83;20993;-40
2022/12/15 13:44:26;;;;;;;107.32;51.95;;;;;;;-1.23;76.40;98524.42;1709604;82;21017;-40
2022/12/15 13:46:53;;;;;;;107.70;51.40;;;;;;;-1.24;76.29;98519.28;1700075;82;21059;-36
2022/12/15 13:49:39;;;;;;;111.20;52.30;;;;;;;-1.20;76.36;98517.05;1715279;82;20992;-38
2022/12/15 13:52:25;;;;;;;97.92;48.87;;;;;;;-1.24;76.54;98527.02;1708699;83;21024;-38
2022/12/15 13:54:56;;;;;;;108.92;52.03;;;;;;;-1.27;76.71;98527.95;1700046;82;21036;-41
2022/12/15 13:57:24;;;;;;;99.47;50.17;;;;;;;-1.24;77.01;98533.02;1714965;82;21032;-36
2022/12/15 13:59:55;;;;;;;113.50;52.65;;;;;;;-1.26;76.98;98532.66;1707437;83;20961;-37